ěÝzenÝ letovÚho provozu ╚eskÚ republiky
Letiste: LKTB Aktualizace: 19.01.2021 14:18:24  UTC
 METAR LKTB 19.01. 14:00 ...
METAR LKTB 191400Z 20007KT CAVOK 02/M02 Q1014 R27/21//95 NOSIG RMK REG QNH 1006=
 TAF LKTB 19.01. 11:00 ...
TAF LKTB 191100Z 1912/2018 18006KT 9999 BKN030      TEMPO 1912/2003 24012KT -SNRA BKN017      PROB30 TEMPO 1918/1923 2500 SN OVC007      BECMG 2004/2006 VRB02KT 2500 BR BKN006      TEMPO 2006/2018 1200 BR OVC004      PROB30 TEMPO 2006/2012 0500 FZFG OVC002=